EDT,Max TemperatureF,Mean TemperatureF,Min TemperatureF,Max Dew PointF,MeanDew PointF,Min DewpointF,Max Humidity, Mean Humidity, Min Humidity, Max Sea Level PressureIn, Mean Sea Level PressureIn, Min Sea Level PressureIn, Max VisibilityMiles, Mean VisibilityMiles, Min VisibilityMiles, Max Wind SpeedMPH, Mean Wind SpeedMPH, Max Gust SpeedMPH,PrecipitationIn, CloudCover, Events, WindDirDegrees
2013-6-1,82,72,62,73,67,63,100,82,54,30.19,30.15,30.11,10,9,0,13,3,17,0.00,2,Fog,167
2013-6-2,84,73,62,75,70,63,100,88,66,30.13,30.04,29.98,10,10,5,16,4,22,0.05,4,Rain-Thunderstorm,165
2013-6-3,80,74,69,79,74,70,100,99,89,29.98,29.93,29.89,10,10,2,14,6,24,0.34,5,Rain-Thunderstorm,193
2013-6-4,84,76,68,75,72,68,100,92,66,30.07,30.00,29.94,10,8,0,12,3,,0.00,5,Fog-Thunderstorm,83
2013-6-5,78,76,73,77,74,72,100,96,83,30.07,30.04,30.00,10,10,10,14,8,21,0.00,6,Rain-Thunderstorm,88
2013-6-6,80,76,71,77,72,72,100,93,74,30.01,29.90,29.76,10,9,2,14,6,21,0.55,6,Rain,150
2013-6-7,82,76,71,75,73,70,100,90,66,29.88,29.70,29.57,10,9,2,23,12,38,0.50,6,Rain,202
2013-6-8,87,80,73,75,73,70,100,84,55,30.12,29.99,29.89,10,10,10,14,8,21,0.04,2,,209
2013-6-9,86,80,73,77,74,72,100,88,66,30.17,30.13,30.10,10,10,10,14,4,20,0.00,2,Thunderstorm,175
2013-6-10,86,77,68,79,74,68,100,88,66,30.14,30.08,30.01,10,10,5,20,8,30,0.04,4,Rain-Thunderstorm,193
2013-6-11,87,78,69,77,72,70,100,84,58,30.04,29.98,29.94,10,10,10,16,7,20,0.05,2,Rain-Thunderstorm,227
2013-6-12,93,81,69,79,74,68,100,81,46,30.01,29.97,29.92,10,10,2,10,2,,0.00,1,,238
2013-6-13,95,86,77,79,76,72,100,78,49,29.94,29.83,29.73,10,9,7,18,8,24,0.00,0,,228
2013-6-14,86,77,68,77,64,55,94,67,40,30.01,29.86,29.73,10,10,10,14,7,22,0.00,2,Rain,344
2013-6-15,80,70,60,68,62,54,100,72,39,30.16,30.11,30.02,10,10,10,14,4,18,0.00,0,,133
2013-6-16,84,72,59,68,63,59,100,75,48,30.19,30.14,30.09,10,10,10,13,3,16,0.00,1,,194
2013-6-17,86,75,64,77,71,64,100,85,58,30.11,30.06,29.99,10,10,10,12,4,18,0.00,3,Rain,201
2013-6-18,89,80,71,79,73,70,100,87,59,30.03,29.94,29.87,10,10,7,16,5,24,0.13,4,Rain-Thunderstorm,218
2013-6-19,80,76,71,79,75,72,100,97,79,30.07,29.98,29.90,10,9,2,14,8,17,0.10,6,Rain-Thunderstorm,306
2013-6-20,80,74,69,72,69,63,100,84,57,30.19,30.13,30.06,10,10,2,17,8,23,0.05,6,Rain-Thunderstorm,49
2013-6-21,82,73,64,73,68,61,100,82,66,30.20,30.16,30.13,10,10,7,15,8,21,0.02,4,Rain,36
2013-6-22,84,76,68,75,71,68,100,90,62,30.19,30.15,30.11,10,10,5,9,3,,0.03,4,Rain,284
2013-6-23,86,77,68,79,73,68,100,90,70,30.21,30.18,30.15,10,10,4,15,3,18,0.02,2,Rain-Thunderstorm,125
2013-6-24,86,78,71,79,75,72,100,90,66,30.26,30.20,30.17,10,10,2,10,4,,0.01,2,Rain-Thunderstorm,188
2013-6-25,87,79,71,77,74,70,100,90,62,30.19,30.14,30.08,10,10,1,10,4,16,0.02,2,Rain-Thunderstorm,212
2013-6-26,87,79,71,77,73,72,100,90,62,30.09,30.04,29.98,10,10,2,14,6,20,0.03,1,Rain-Thunderstorm,228
2013-6-27,89,79,69,79,76,68,100,93,62,30.02,29.91,29.82,10,10,2,13,7,31,0.02,2,Rain-Thunderstorm,214
2013-6-28,89,81,73,79,77,73,100,87,59,29.85,29.76,29.68,10,10,10,16,9,24,0.02,2,,215
2013-6-29,86,78,71,79,74,70,100,89,66,29.80,29.74,29.70,10,10,5,22,9,26,0.02,3,Rain-Thunderstorm,207
2013-6-30,82,76,69,79,75,70,100,97,79,29.89,29.82,29.76,10,9,2,13,6,24,0.01,5,Rain-Thunderstorm,194